createdAt,value
2022-12-27T00:01:46.211Z,100654.06
2022-12-27T00:04:18.980Z,100670.01
2022-12-27T00:06:51.676Z,100675.02
2022-12-27T00:09:24.639Z,100678.12
2022-12-27T00:11:59.952Z,100683.35
2022-12-27T00:14:33.037Z,100683.48
2022-12-27T00:17:06.032Z,100691.13
2022-12-27T00:19:38.994Z,100701.33
2022-12-27T00:22:12.933Z,100709.06
2022-12-27T00:24:45.796Z,100710.38
2022-12-27T00:27:18.477Z,100699.45
2022-12-27T00:29:52.330Z,100705.06
2022-12-27T00:32:27.387Z,100710.40
2022-12-27T00:35:00.353Z,100708.53
2022-12-27T00:37:33.066Z,100702.48
2022-12-27T00:40:12.376Z,100706.20
2022-12-27T00:42:45.191Z,100714.69
2022-12-27T00:45:20.343Z,100720.81
2022-12-27T00:47:56.096Z,100730.54
2022-12-27T00:50:29.261Z,100726.14
2022-12-27T00:53:04.641Z,100722.52
2022-12-27T00:55:37.748Z,100728.29
2022-12-27T00:58:11.490Z,100743.02
2022-12-27T01:00:44.558Z,100748.36
2022-12-27T01:03:18.013Z,100748.57
2022-12-27T01:05:51.590Z,100764.04
2022-12-27T01:08:24.586Z,100783.77
2022-12-27T01:10:57.449Z,100782.16
2022-12-27T01:13:30.857Z,100779.63
2022-12-27T01:16:12.755Z,100776.10
2022-12-27T01:18:45.616Z,100776.66
2022-12-27T01:21:20.713Z,100784.63
2022-12-27T01:23:53.752Z,100794.40
2022-12-27T01:26:26.874Z,100796.40
2022-12-27T01:28:59.560Z,100790.70
2022-12-27T01:31:32.485Z,100798.45
2022-12-27T01:34:05.259Z,100807.19
2022-12-27T01:36:37.935Z,100808.02
2022-12-27T01:39:13.965Z,100813.46
2022-12-27T01:42:05.441Z,100813.70
2022-12-27T01:44:57.047Z,100817.32
2022-12-27T01:47:45.604Z,100813.95
2022-12-27T01:50:24.884Z,100809.24
2022-12-27T01:53:03.560Z,100809.96
2022-12-27T01:55:41.148Z,100806.45
2022-12-27T01:58:19.133Z,100805.63
2022-12-27T02:00:54.989Z,100806.92
2022-12-27T02:03:31.535Z,100806.88
2022-12-27T02:06:07.169Z,100813.51
2022-12-27T02:08:50.293Z,100814.40
2022-12-27T02:11:41.692Z,100812.96
2022-12-27T02:14:16.781Z,100818.06
2022-12-27T02:16:49.454Z,100816.23
2022-12-27T02:19:33.079Z,100816.91
2022-12-27T02:26:39.325Z,100813.11
2022-12-27T02:29:31.540Z,100811.98
2022-12-27T02:32:08.761Z,100814.23
2022-12-27T02:34:57.311Z,100820.61
2022-12-27T02:37:33.197Z,100819.02
2022-12-27T02:40:28.504Z,100829.30
2022-12-27T02:43:23.042Z,100831.20
2022-12-27T02:46:28.213Z,100836.79
2022-12-27T02:49:22.985Z,100841.96
2022-12-27T02:52:29.191Z,100843.58
2022-12-27T02:55:17.066Z,100855.52
2022-12-27T02:58:15.407Z,100855.26
2022-12-27T03:01:14.101Z,100857.25
2022-12-27T03:04:05.026Z,100860.23
2022-12-27T03:06:59.731Z,100867.14
2022-12-27T03:10:21.485Z,100869.39
2022-12-27T03:13:21.953Z,100876.02
2022-12-27T03:16:09.083Z,100872.35
2022-12-27T03:18:54.754Z,100874.72
2022-12-27T03:22:00.725Z,100879.16
2022-12-27T03:25:06.070Z,100881.33
2022-12-27T03:27:44.467Z,100889.33
2022-12-27T03:30:34.826Z,100891.13
2022-12-27T03:33:14.663Z,100898.14
2022-12-27T03:54:40.301Z,100924.59
2022-12-27T03:57:14.609Z,100934.25
2022-12-27T03:59:44.146Z,100941.03
2022-12-27T04:02:14.304Z,100937.96
2022-12-27T04:04:44.010Z,100941.84
2022-12-27T04:10:20.439Z,100947.13
2022-12-27T04:13:08.055Z,100952.61
2022-12-27T04:15:55.570Z,100953.98
2022-12-27T04:18:42.838Z,100960.65
2022-12-27T04:21:30.155Z,100960.62
2022-12-27T04:24:19.792Z,100966.76
2022-12-27T04:27:07.356Z,100967.67
2022-12-27T04:29:57.816Z,100971.79
2022-12-27T04:32:45.662Z,100975.85
2022-12-27T04:35:15.011Z,100979.20
2022-12-27T04:37:44.407Z,100984.12
2022-12-27T04:40:31.877Z,100991.59
2022-12-27T04:43:19.368Z,100997.61
2022-12-27T04:46:06.701Z,101003.52
2022-12-27T04:49:08.680Z,101004.75
2022-12-27T04:51:56.215Z,100995.70
2022-12-27T04:54:44.331Z,101003.73
2022-12-27T04:57:13.668Z,101004.19
2022-12-27T05:00:01.088Z,101008.40
2022-12-27T05:02:30.766Z,101010.36
2022-12-27T05:05:00.768Z,101007.42
2022-12-27T05:07:48.683Z,101005.21
2022-12-27T05:10:36.639Z,101012.96
2022-12-27T05:13:24.231Z,101018.27
2022-12-27T05:15:53.569Z,101021.53
2022-12-27T05:18:26.688Z,101023.52
2022-12-27T05:21:03.518Z,101031.16
2022-12-27T05:23:52.910Z,101031.40
2022-12-27T05:26:24.339Z,101040.75
2022-12-27T05:28:55.016Z,101044.46
2022-12-27T05:31:26.487Z,101045.75
2022-12-27T05:33:57.160Z,101047.38
2022-12-27T05:36:27.076Z,101041.59
2022-12-27T05:38:57.569Z,101042.97
2022-12-27T05:41:31.292Z,101048.09
2022-12-27T05:44:07.179Z,101057.85
2022-12-27T05:46:37.135Z,101057.33
2022-12-27T05:49:06.737Z,101054.52
2022-12-27T05:51:35.950Z,101053.30
2022-12-27T05:54:05.682Z,101052.13
2022-12-27T05:56:36.710Z,101056.15
2022-12-27T05:59:07.371Z,101057.72
2022-12-27T06:01:39.027Z,101058.11
2022-12-27T06:04:10.198Z,101059.36
2022-12-27T06:06:41.723Z,101067.95
2022-12-27T06:09:11.058Z,101067.21
2022-12-27T06:15:33.799Z,101077.52
2022-12-27T06:18:27.152Z,101073.83
2022-12-27T06:21:02.771Z,101075.31
2022-12-27T06:23:32.721Z,101081.54
2022-12-27T06:26:06.741Z,101087.56
2022-12-27T06:28:36.344Z,101087.63
2022-12-27T06:31:06.689Z,101096.44
2022-12-27T06:33:36.001Z,101095.62
2022-12-27T06:36:49.174Z,101101.30
2022-12-27T06:39:19.442Z,101104.31
2022-12-27T06:41:53.405Z,101110.04
2022-12-27T06:44:22.772Z,101115.39
2022-12-27T06:46:52.139Z,101120.75
2022-12-27T06:49:22.827Z,101124.69
2022-12-27T06:51:59.059Z,101133.14
2022-12-27T06:54:33.847Z,101133.70
2022-12-27T06:57:03.395Z,101137.75
2022-12-27T06:59:32.676Z,101141.55
2022-12-27T07:02:02.143Z,101145.27
2022-12-27T07:04:34.923Z,101141.52
2022-12-27T07:07:04.767Z,101138.98
2022-12-27T07:09:34.013Z,101144.37
2022-12-27T07:12:17.077Z,101142.64
2022-12-27T07:15:00.710Z,101137.17
2022-12-27T07:17:30.133Z,101147.77
2022-12-27T07:19:59.435Z,101149.90
2022-12-27T07:22:28.962Z,101154.77
2022-12-27T07:24:58.210Z,101151.20
2022-12-27T07:27:27.481Z,101151.39
2022-12-27T07:29:56.909Z,101157.19
2022-12-27T07:32:26.158Z,101161.82
2022-12-27T07:34:55.628Z,101168.16
2022-12-27T07:37:24.904Z,101168.06
2022-12-27T07:39:54.171Z,101182.94
2022-12-27T07:42:23.636Z,101184.64
2022-12-27T07:44:53.047Z,101187.54
2022-12-27T07:47:22.277Z,101191.46
2022-12-27T07:49:51.741Z,101191.04
2022-12-27T07:52:21.070Z,101195.13
2022-12-27T07:54:50.352Z,101193.94
2022-12-27T07:57:19.737Z,101195.45
2022-12-27T07:59:49.202Z,101197.74
2022-12-27T08:02:18.574Z,101204.87
2022-12-27T08:04:48.487Z,101201.22
2022-12-27T08:08:23.587Z,101198.86
2022-12-27T08:10:53.102Z,101204.09
2022-12-27T08:13:22.662Z,101201.42
2022-12-27T08:16:00.664Z,101203.77
2022-12-27T08:18:30.080Z,101207.53
2022-12-27T08:20:59.381Z,101205.04
2022-12-27T08:23:28.620Z,101210.64
2022-12-27T08:25:57.941Z,101210.86
2022-12-27T08:28:31.040Z,101213.84
2022-12-27T08:31:00.919Z,101214.23
2022-12-27T08:33:30.254Z,101219.98
2022-12-27T08:36:15.723Z,101223.79
2022-12-27T08:38:55.911Z,101226.73
2022-12-27T08:41:25.453Z,101226.38
2022-12-27T08:43:54.749Z,101227.10
2022-12-27T08:46:28.589Z,101229.42
2022-12-27T08:49:00.915Z,101228.31
2022-12-27T08:52:00.414Z,101231.66
2022-12-27T08:54:44.349Z,101238.89
2022-12-27T08:57:13.627Z,101242.81
2022-12-27T08:59:42.931Z,101242.95
2022-12-27T09:02:13.930Z,101251.88
2022-12-27T09:04:44.462Z,101255.41
2022-12-27T09:07:13.939Z,101266.02
2022-12-27T09:09:44.396Z,101262.26
2022-12-27T09:12:13.682Z,101256.70
2022-12-27T09:14:42.921Z,101255.44
2022-12-27T09:17:13.347Z,101249.16
2022-12-27T09:19:42.648Z,101246.19
2022-12-27T09:22:12.065Z,101253.51
2022-12-27T09:24:41.391Z,101254.25
2022-12-27T09:27:10.693Z,101257.39
2022-12-27T09:29:43.166Z,101261.55
2022-12-27T09:32:17.435Z,101265.30
2022-12-27T09:34:49.050Z,101264.27
2022-12-27T09:37:18.317Z,101269.58
2022-12-27T09:39:47.791Z,101270.96
2022-12-27T09:42:50.137Z,101264.11
2022-12-27T09:45:28.402Z,101267.02
2022-12-27T09:48:02.178Z,101264.09
2022-12-27T09:50:35.916Z,101263.85
2022-12-27T09:53:16.781Z,101264.46
2022-12-27T09:55:50.192Z,101256.30
2022-12-27T09:58:34.179Z,101261.14
2022-12-27T10:01:14.923Z,101260.66
2022-12-27T10:03:44.839Z,101258.52
2022-12-27T10:06:26.906Z,101268.05
2022-12-27T10:09:02.637Z,101267.85
2022-12-27T10:11:41.166Z,101276.71
2022-12-27T10:14:25.756Z,101272.77
2022-12-27T10:17:02.239Z,101267.61
2022-12-27T10:19:42.104Z,101267.48
2022-12-27T10:22:26.646Z,101267.30
2022-12-27T10:25:03.948Z,101264.35
2022-12-27T10:27:33.323Z,101265.90
2022-12-27T10:30:13.819Z,101263.48
2022-12-27T10:32:43.312Z,101265.23
2022-12-27T10:35:18.950Z,101267.31
2022-12-27T10:37:49.649Z,101270.48
2022-12-27T10:40:25.541Z,101272.41
2022-12-27T10:43:04.811Z,101272.94
2022-12-27T10:45:38.531Z,101280.05
2022-12-27T10:48:22.996Z,101279.50
2022-12-27T10:50:56.631Z,101280.76
2022-12-27T10:53:36.536Z,101279.80
2022-12-27T10:56:13.161Z,101280.69
2022-12-27T10:58:45.642Z,101274.73
2022-12-27T11:01:22.745Z,101277.42
2022-12-27T11:04:11.900Z,101278.50
2022-12-27T11:06:47.414Z,101278.98
2022-12-27T11:09:26.759Z,101279.13
2022-12-27T11:12:13.122Z,101278.91
2022-12-27T11:14:55.544Z,101280.27
2022-12-27T11:17:37.185Z,101280.77
2022-12-27T11:20:26.483Z,101281.04
2022-12-27T11:22:59.259Z,101279.14
2022-12-27T11:25:31.716Z,101281.13
2022-12-27T11:28:04.461Z,101274.34
2022-12-27T11:30:37.644Z,101274.46
2022-12-27T11:33:24.406Z,101282.46
2022-12-27T11:35:57.008Z,101284.46
2022-12-27T11:38:29.329Z,101286.40
2022-12-27T11:41:05.510Z,101284.49
2022-12-27T11:44:11.745Z,101289.47
2022-12-27T11:46:47.266Z,101288.98
2022-12-27T11:49:22.602Z,101291.67
2022-12-27T11:52:18.835Z,101289.16
2022-12-27T11:55:23.909Z,101293.44
2022-12-27T11:58:33.939Z,101293.00
2022-12-27T12:01:24.986Z,101292.19
2022-12-27T12:04:06.780Z,101295.52
2022-12-27T12:06:47.161Z,101299.06
2022-12-27T12:09:50.043Z,101296.46
2022-12-27T12:12:51.686Z,101295.02
2022-12-27T12:15:41.560Z,101295.02
2022-12-27T12:18:33.780Z,101301.92
2022-12-27T12:21:26.427Z,101302.70
2022-12-27T12:24:37.902Z,101306.23
2022-12-27T12:27:27.558Z,101302.34
2022-12-27T12:30:27.742Z,101304.26
2022-12-27T12:33:13.080Z,101304.39
2022-12-27T12:36:22.621Z,101300.39
2022-12-27T12:38:58.530Z,101294.70
2022-12-27T12:41:47.735Z,101298.30
2022-12-27T12:44:45.939Z,101295.15
2022-12-27T12:47:33.636Z,101300.38
2022-12-27T12:50:35.945Z,101298.05
2022-12-27T12:53:32.803Z,101297.16
2022-12-27T12:56:22.148Z,101295.14
2022-12-27T12:58:59.829Z,101293.12
2022-12-27T13:01:50.926Z,101298.91
2022-12-27T13:04:58.074Z,101313.69
2022-12-27T13:07:46.392Z,101312.73
2022-12-27T13:10:42.777Z,101314.11
2022-12-27T13:13:25.309Z,101316.86
2022-12-27T13:16:05.817Z,101316.86
2022-12-27T13:18:46.906Z,101324.43
2022-12-27T13:21:29.119Z,101333.91
2022-12-27T13:24:10.624Z,101336.80
2022-12-27T13:26:47.938Z,101349.17
2022-12-27T13:29:38.656Z,101345.80
2022-12-27T13:32:19.360Z,101354.59
2022-12-27T13:35:24.636Z,101360.63
2022-12-27T13:38:07.016Z,101361.97
2022-12-27T13:40:55.621Z,101366.23
2022-12-27T13:43:52.565Z,101368.37
2022-12-27T13:46:43.127Z,101364.19
2022-12-27T13:49:43.799Z,101367.30
2022-12-27T13:52:25.689Z,101363.52
2022-12-27T13:55:21.553Z,101366.83
2022-12-27T13:58:21.643Z,101358.58
2022-12-27T14:01:01.383Z,101355.98
2022-12-27T14:04:04.273Z,101352.02
2022-12-27T14:06:58.429Z,101346.25
2022-12-27T14:09:56.494Z,101357.86
2022-12-27T14:12:52.793Z,101357.58
2022-12-27T14:15:51.009Z,101347.44
2022-12-27T14:18:44.357Z,101358.26
2022-12-27T14:21:37.067Z,101366.92
2022-12-27T14:24:55.301Z,101370.92
2022-12-27T14:28:04.664Z,101360.03
2022-12-27T14:31:14.240Z,101364.09
2022-12-27T14:34:27.594Z,101369.02
2022-12-27T14:37:16.695Z,101375.78
2022-12-27T14:40:16.931Z,101381.30
2022-12-27T14:43:34.804Z,101388.09
2022-12-27T14:46:44.978Z,101398.48
2022-12-27T14:53:31.125Z,101408.27
2022-12-27T14:56:12.185Z,101416.52
2022-12-27T14:59:16.994Z,101414.64
2022-12-27T15:01:59.040Z,101419.31
2022-12-27T15:04:54.924Z,101426.36
2022-12-27T15:07:56.831Z,101430.03
2022-12-27T15:10:49.172Z,101435.84
2022-12-27T15:13:31.318Z,101435.98
2022-12-27T15:16:13.362Z,101434.80
2022-12-27T15:18:57.591Z,101439.20
2022-12-27T15:22:19.471Z,101437.63
2022-12-27T15:24:58.316Z,101443.69
2022-12-27T15:27:45.934Z,101446.55
2022-12-27T15:30:45.527Z,101450.81
2022-12-27T15:34:20.407Z,101451.89
2022-12-27T15:36:52.305Z,101451.41
2022-12-27T15:39:47.285Z,101456.34
2022-12-27T15:42:55.166Z,101455.33
2022-12-27T15:45:57.532Z,101451.23
2022-12-27T15:48:58.338Z,101456.58
2022-12-27T15:51:44.025Z,101465.23
2022-12-27T15:54:41.202Z,101471.30
2022-12-27T15:57:57.979Z,101472.78
2022-12-27T16:01:26.386Z,101472.90
2022-12-27T16:04:01.427Z,101473.76
2022-12-27T16:07:24.984Z,101473.11
2022-12-27T16:09:55.505Z,101477.93
2022-12-27T16:12:41.475Z,101484.02
2022-12-27T16:15:52.819Z,101482.68
2022-12-27T16:19:04.539Z,101489.26
2022-12-27T16:22:11.567Z,101481.09
2022-12-27T16:24:46.244Z,101497.14
2022-12-27T16:27:31.657Z,101504.47
2022-12-27T16:30:01.189Z,101504.14
2022-12-27T16:32:45.302Z,101511.79
2022-12-27T16:35:16.430Z,101508.54
2022-12-27T16:37:53.586Z,101520.21
2022-12-27T16:40:51.930Z,101513.67
2022-12-27T16:44:14.245Z,101518.20
2022-12-27T16:47:13.300Z,101509.84
2022-12-27T16:50:34.727Z,101508.63
2022-12-27T16:53:35.635Z,101513.84
2022-12-27T17:00:41.593Z,101522.80
2022-12-27T17:03:47.754Z,101520.25
2022-12-27T17:06:57.843Z,101527.13
2022-12-27T17:09:51.840Z,101534.59
2022-12-27T17:12:29.299Z,101537.27
2022-12-27T17:15:07.628Z,101538.14
2022-12-27T17:17:40.416Z,101539.05
2022-12-27T17:20:19.499Z,101538.48
2022-12-27T17:22:58.218Z,101540.80
2022-12-27T17:25:44.527Z,101541.85
2022-12-27T17:28:24.146Z,101543.04
2022-12-27T17:31:12.970Z,101549.02
2022-12-27T17:34:02.592Z,101551.31
2022-12-27T17:36:49.211Z,101550.30
2022-12-27T17:39:58.800Z,101547.59
2022-12-27T17:42:54.404Z,101549.20
2022-12-27T17:45:49.617Z,101551.27
2022-12-27T17:48:29.325Z,101550.48
2022-12-27T17:51:07.186Z,101552.64
2022-12-27T17:54:18.288Z,101552.15
2022-12-27T17:57:43.978Z,101558.08
2022-12-27T18:00:45.273Z,101561.71
2022-12-27T18:03:27.994Z,101562.88
2022-12-27T18:06:03.341Z,101570.17
2022-12-27T18:09:04.963Z,101571.52
2022-12-27T18:11:37.798Z,101574.45
2022-12-27T18:14:17.027Z,101576.80
2022-12-27T18:16:50.490Z,101577.67
2022-12-27T18:19:23.604Z,101579.07
2022-12-27T18:22:39.389Z,101581.29
2022-12-27T18:25:51.054Z,101582.02
2022-12-27T18:28:59.871Z,101583.26
2022-12-27T18:31:45.385Z,101587.23
2022-12-27T18:34:34.645Z,101583.95
2022-12-27T18:37:10.071Z,101588.83
2022-12-27T18:39:48.730Z,101591.05
2022-12-27T18:45:47.127Z,101599.79
2022-12-27T18:48:40.625Z,101605.70
2022-12-27T18:51:17.782Z,101611.64
2022-12-27T18:53:59.278Z,101612.27
2022-12-27T18:56:55.599Z,101608.95
2022-12-27T19:03:36.552Z,101606.71
2022-12-27T19:07:10.607Z,101609.30
2022-12-27T19:10:04.294Z,101604.98
2022-12-27T19:13:04.429Z,101612.62
2022-12-27T19:15:43.916Z,101610.98
2022-12-27T19:23:33.031Z,101618.01
2022-12-27T19:27:01.989Z,101605.94
2022-12-27T19:29:42.638Z,101617.89
2022-12-27T19:32:36.838Z,101617.75
2022-12-27T19:35:16.741Z,101622.48
2022-12-27T19:42:52.168Z,101619.98
2022-12-27T19:57:30.557Z,101622.63
2022-12-27T20:11:07.624Z,101631.39
2022-12-27T20:13:37.531Z,101635.73
2022-12-27T20:16:12.408Z,101635.16
2022-12-27T20:18:42.937Z,101635.63
2022-12-27T20:21:14.770Z,101633.52
2022-12-27T20:23:44.620Z,101636.66
2022-12-27T20:26:19.721Z,101636.56
2022-12-27T20:28:52.888Z,101640.96
2022-12-27T20:31:51.585Z,101644.11
2022-12-27T20:34:21.175Z,101640.31
2022-12-27T20:37:11.783Z,101653.40
2022-12-27T20:39:41.245Z,101658.00
2022-12-27T20:42:10.656Z,101663.11
2022-12-27T20:44:40.204Z,101656.47
2022-12-27T20:47:09.811Z,101664.13
2022-12-27T20:49:39.476Z,101659.86
2022-12-27T20:52:08.795Z,101660.74
2022-12-27T20:54:44.168Z,101660.89
2022-12-27T20:57:13.570Z,101661.30
2022-12-27T20:59:49.373Z,101660.52
2022-12-27T21:02:21.675Z,101662.98
2022-12-27T21:04:51.335Z,101658.19
2022-12-27T21:07:20.905Z,101659.36
2022-12-27T21:09:50.502Z,101650.02
2022-12-27T21:12:20.068Z,101659.95
2022-12-27T21:15:31.336Z,101661.32
2022-12-27T21:18:01.079Z,101660.94
2022-12-27T21:20:39.100Z,101666.73
2022-12-27T21:23:09.116Z,101665.77
2022-12-27T21:25:40.535Z,101666.45
2022-12-27T21:28:10.078Z,101663.73
2022-12-27T21:31:15.425Z,101665.86
2022-12-27T21:37:27.524Z,101664.60
2022-12-27T21:39:58.141Z,101664.05
2022-12-27T21:42:36.151Z,101662.60
2022-12-27T21:45:07.715Z,101663.34
2022-12-27T21:47:37.016Z,101665.70
2022-12-27T21:50:07.718Z,101660.85
2022-12-27T21:52:37.118Z,101662.23
2022-12-27T21:55:07.350Z,101658.98
2022-12-27T21:57:36.615Z,101657.73
2022-12-27T22:00:18.700Z,101655.96
2022-12-27T22:02:49.410Z,101657.19
2022-12-27T22:05:19.047Z,101661.66
2022-12-27T22:07:49.291Z,101662.64
2022-12-27T22:10:35.203Z,101661.83
2022-12-27T22:13:04.652Z,101659.90
2022-12-27T22:15:33.901Z,101658.80
2022-12-27T22:18:04.579Z,101660.05
2022-12-27T22:20:33.899Z,101661.74
2022-12-27T22:23:15.775Z,101664.29
2022-12-27T22:25:47.163Z,101666.84
2022-12-27T22:28:16.657Z,101667.98
2022-12-27T22:30:48.505Z,101678.35
2022-12-27T22:33:18.451Z,101679.11
2022-12-27T22:35:47.834Z,101686.80
2022-12-27T22:38:19.190Z,101688.16
2022-12-27T22:40:51.035Z,101690.33
2022-12-27T22:43:20.691Z,101689.67
2022-12-27T22:45:53.728Z,101690.08
2022-12-27T22:48:23.452Z,101684.08
2022-12-27T22:50:52.721Z,101683.37
2022-12-27T22:53:22.000Z,101682.33
2022-12-27T22:55:51.272Z,101682.80
2022-12-27T22:58:20.803Z,101685.91
2022-12-27T23:00:50.147Z,101691.73
2022-12-27T23:03:19.491Z,101690.73
2022-12-27T23:06:02.792Z,101689.11
2022-12-27T23:08:32.085Z,101684.11
2022-12-27T23:11:10.382Z,101681.73
2022-12-27T23:13:40.053Z,101679.16
2022-12-27T23:16:12.292Z,101676.71
2022-12-27T23:18:44.095Z,101672.25
2022-12-27T23:21:22.981Z,101671.00
2022-12-27T23:24:02.708Z,101673.39
2022-12-27T23:26:32.035Z,101674.34
2022-12-27T23:29:01.637Z,101673.61
2022-12-27T23:31:31.615Z,101672.63
2022-12-27T23:34:00.997Z,101674.61
2022-12-27T23:36:32.125Z,101666.55
2022-12-27T23:39:04.622Z,101674.10
2022-12-27T23:41:36.445Z,101670.48
2022-12-27T23:44:09.175Z,101671.30
2022-12-27T23:46:38.480Z,101671.27
2022-12-27T23:49:08.138Z,101671.02
2022-12-27T23:51:37.435Z,101666.70
2022-12-27T23:54:06.776Z,101671.91
2022-12-27T23:56:36.303Z,101673.09
2022-12-27T23:59:16.146Z,101677.28
